Alpine Meadows, California
Current Conditions -  °F | °C
As of 11:50 AM on Saturday 22 Nov 2014 (Local Time) from KTRK Reporting Station
Broken Clouds Broken Clouds  
Wind Chill: 40°   Ceiling: 3500
Heat Index: 46°   Visibility: 10mi
Dew Point: 39°   Wind: 16mph
Humidity: 76%   Direction: 240°WSW
Pressure: 30"   Gusts: 30mph
Location:  39.16°N, 120.24°W
Report Text: KTRK 221950Z 24014G26KT 10SM SCT010 BKN035 08/04 A3000 RMK NOSPECI
Loading
Personal Weather Stations






























Interactive Weather Map New forecast layout! Learn more

10-Day Weather Forecast

Advertisements
Track Severe Weather on mobile